Terminal Aerodrome Forecast
Issued by NWS Topeka, KS

Home | Current Version | Previous Version | Graphics & Text | Print | Product List | Glossary On
Versions: 1 2 3 4 5 6 7 8 9 10 11 12 13 14 15 16 17 18 19 20 21
000
FTUS43 KTOP 121100
TAFTOP
TAF
KTOP 121125Z 1212/1312 03007KT P6SM VCSH FEW008 SCT012 OVC025
     FM121400 02006KT 4SM -SHRA BR OVC008
     FM121800 01011KT P6SM VCSH OVC015
     FM122000 01010KT P6SM BKN025
     FM130500 36001KT P6SM SKC=

USA.gov is the U.S. government's official web portal to all federal, state and local government web resources and services.